sensor_id;sensor_type;location;lat;lon;timestamp;P1;durP1;ratioP1;P2;durP2;ratioP2
58758;SDS011;46777;47.482;19.054;2023-02-13T00:02:11;23.83;;;21.25;;
58758;SDS011;46777;47.482;19.054;2023-02-13T00:04:57;18.80;;;16.80;;
58758;SDS011;46777;47.482;19.054;2023-02-13T00:07:41;20.98;;;18.65;;
58758;SDS011;46777;47.482;19.054;2023-02-13T00:10:25;22.05;;;19.67;;
58758;SDS011;46777;47.482;19.054;2023-02-13T00:13:09;22.70;;;20.00;;
58758;SDS011;46777;47.482;19.054;2023-02-13T00:15:54;19.65;;;17.55;;
58758;SDS011;46777;47.482;19.054;2023-02-13T00:18:39;22.83;;;19.60;;
58758;SDS011;46777;47.482;19.054;2023-02-13T00:21:23;21.25;;;18.75;;
58758;SDS011;46777;47.482;19.054;2023-02-13T00:24:07;21.17;;;17.73;;
58758;SDS011;46777;47.482;19.054;2023-02-13T00:26:52;21.77;;;18.65;;
58758;SDS011;46777;47.482;19.054;2023-02-13T00:29:36;25.00;;;18.10;;
58758;SDS011;46777;47.482;19.054;2023-02-13T00:32:20;21.60;;;18.35;;
58758;SDS011;46777;47.482;19.054;2023-02-13T00:35:04;19.77;;;16.17;;
58758;SDS011;46777;47.482;19.054;2023-02-13T00:37:49;21.75;;;18.23;;
58758;SDS011;46777;47.482;19.054;2023-02-13T00:40:33;19.10;;;16.95;;
58758;SDS011;46777;47.482;19.054;2023-02-13T00:43:17;21.42;;;18.35;;
58758;SDS011;46777;47.482;19.054;2023-02-13T00:46:02;18.95;;;16.73;;
58758;SDS011;46777;47.482;19.054;2023-02-13T00:48:47;18.80;;;16.50;;
58758;SDS011;46777;47.482;19.054;2023-02-13T00:51:31;18.85;;;16.60;;
58758;SDS011;46777;47.482;19.054;2023-02-13T00:54:15;18.92;;;16.77;;
58758;SDS011;46777;47.482;19.054;2023-02-13T00:57:00;20.00;;;16.58;;
58758;SDS011;46777;47.482;19.054;2023-02-13T00:59:44;20.75;;;16.52;;
58758;SDS011;46777;47.482;19.054;2023-02-13T01:02:28;17.52;;;15.60;;
58758;SDS011;46777;47.482;19.054;2023-02-13T01:05:12;18.42;;;16.38;;
58758;SDS011;46777;47.482;19.054;2023-02-13T01:07:57;17.88;;;15.90;;
58758;SDS011;46777;47.482;19.054;2023-02-13T01:10:41;18.65;;;16.63;;
58758;SDS011;46777;47.482;19.054;2023-02-13T01:13:26;19.30;;;17.35;;
58758;SDS011;46777;47.482;19.054;2023-02-13T01:16:10;19.55;;;16.98;;
58758;SDS011;46777;47.482;19.054;2023-02-13T01:18:55;21.45;;;19.17;;
58758;SDS011;46777;47.482;19.054;2023-02-13T01:21:39;20.63;;;18.42;;
58758;SDS011;46777;47.482;19.054;2023-02-13T01:24:23;21.08;;;18.77;;
58758;SDS011;46777;47.482;19.054;2023-02-13T01:27:08;21.88;;;18.40;;
58758;SDS011;46777;47.482;19.054;2023-02-13T01:29:52;20.90;;;18.80;;
58758;SDS011;46777;47.482;19.054;2023-02-13T01:32:36;21.42;;;18.90;;
58758;SDS011;46777;47.482;19.054;2023-02-13T01:35:21;22.75;;;19.63;;
58758;SDS011;46777;47.482;19.054;2023-02-13T01:38:05;19.88;;;17.77;;
58758;SDS011;46777;47.482;19.054;2023-02-13T01:40:53;21.83;;;19.48;;
58758;SDS011;46777;47.482;19.054;2023-02-13T01:46:32;19.88;;;17.75;;
58758;SDS011;46777;47.482;19.054;2023-02-13T01:49:21;22.33;;;19.92;;
58758;SDS011;46777;47.482;19.054;2023-02-13T01:52:06;20.60;;;18.35;;
58758;SDS011;46777;47.482;19.054;2023-02-13T01:54:52;21.15;;;18.92;;
58758;SDS011;46777;47.482;19.054;2023-02-13T01:57:37;20.50;;;17.98;;
58758;SDS011;46777;47.482;19.054;2023-02-13T02:00:22;19.92;;;17.73;;
58758;SDS011;46777;47.482;19.054;2023-02-13T02:03:14;21.60;;;18.02;;
58758;SDS011;46777;47.482;19.054;2023-02-13T02:05:59;21.67;;;18.83;;
58758;SDS011;46777;47.482;19.054;2023-02-13T02:08:44;19.67;;;17.45;;
58758;SDS011;46777;47.482;19.054;2023-02-13T02:11:33;24.05;;;20.58;;
58758;SDS011;46777;47.482;19.054;2023-02-13T02:14:19;24.98;;;20.45;;
58758;SDS011;46777;47.482;19.054;2023-02-13T02:17:03;23.90;;;21.23;;
58758;SDS011;46777;47.482;19.054;2023-02-13T02:20:06;24.92;;;22.23;;
58758;SDS011;46777;47.482;19.054;2023-02-13T02:28:37;21.15;;;18.52;;
58758;SDS011;46777;47.482;19.054;2023-02-13T02:46:16;24.58;;;21.73;;
58758;SDS011;46777;47.482;19.054;2023-02-13T02:49:05;22.98;;;20.58;;
58758;SDS011;46777;47.482;19.054;2023-02-13T02:52:17;23.27;;;19.88;;
58758;SDS011;46777;47.482;19.054;2023-02-13T02:58:24;25.63;;;20.80;;
58758;SDS011;46777;47.482;19.054;2023-02-13T03:01:20;20.80;;;18.65;;
58758;SDS011;46777;47.482;19.054;2023-02-13T03:04:30;22.13;;;19.75;;
58758;SDS011;46777;47.482;19.054;2023-02-13T03:07:34;23.67;;;21.23;;
58758;SDS011;46777;47.482;19.054;2023-02-13T03:10:21;22.40;;;19.48;;
58758;SDS011;46777;47.482;19.054;2023-02-13T03:13:44;21.50;;;18.80;;
58758;SDS011;46777;47.482;19.054;2023-02-13T03:16:30;21.35;;;19.15;;
58758;SDS011;46777;47.482;19.054;2023-02-13T03:19:45;22.98;;;19.52;;
58758;SDS011;46777;47.482;19.054;2023-02-13T03:31:54;20.08;;;17.92;;
58758;SDS011;46777;47.482;19.054;2023-02-13T03:34:47;21.08;;;18.77;;
58758;SDS011;46777;47.482;19.054;2023-02-13T03:37:53;23.75;;;21.05;;
58758;SDS011;46777;47.482;19.054;2023-02-13T03:40:46;24.90;;;21.92;;
58758;SDS011;46777;47.482;19.054;2023-02-13T03:43:54;26.13;;;22.52;;
58758;SDS011;46777;47.482;19.054;2023-02-13T03:46:42;25.13;;;22.35;;
58758;SDS011;46777;47.482;19.054;2023-02-13T03:49:28;26.70;;;22.48;;
58758;SDS011;46777;47.482;19.054;2023-02-13T03:55:21;24.92;;;21.38;;
58758;SDS011;46777;47.482;19.054;2023-02-13T03:58:58;29.60;;;25.90;;
58758;SDS011;46777;47.482;19.054;2023-02-13T04:04:57;31.67;;;28.27;;
58758;SDS011;46777;47.482;19.054;2023-02-13T04:07:42;31.85;;;28.42;;
58758;SDS011;46777;47.482;19.054;2023-02-13T04:10:26;33.97;;;28.98;;
58758;SDS011;46777;47.482;19.054;2023-02-13T04:13:17;33.45;;;29.85;;
58758;SDS011;46777;47.482;19.054;2023-02-13T04:16:17;33.45;;;28.92;;
58758;SDS011;46777;47.482;19.054;2023-02-13T04:19:04;31.80;;;28.30;;
58758;SDS011;46777;47.482;19.054;2023-02-13T04:21:54;32.30;;;27.70;;
58758;SDS011;46777;47.482;19.054;2023-02-13T04:24:39;32.05;;;26.65;;
58758;SDS011;46777;47.482;19.054;2023-02-13T04:27:24;30.42;;;26.67;;
58758;SDS011;46777;47.482;19.054;2023-02-13T04:30:09;27.83;;;24.83;;
58758;SDS011;46777;47.482;19.054;2023-02-13T04:32:53;29.70;;;25.85;;
58758;SDS011;46777;47.482;19.054;2023-02-13T04:35:38;28.67;;;25.17;;
58758;SDS011;46777;47.482;19.054;2023-02-13T04:38:22;28.25;;;25.17;;
58758;SDS011;46777;47.482;19.054;2023-02-13T04:41:06;28.92;;;25.33;;
58758;SDS011;46777;47.482;19.054;2023-02-13T04:43:50;30.70;;;27.08;;
58758;SDS011;46777;47.482;19.054;2023-02-13T04:46:35;30.70;;;26.02;;
58758;SDS011;46777;47.482;19.054;2023-02-13T04:49:19;30.23;;;25.75;;
58758;SDS011;46777;47.482;19.054;2023-02-13T04:52:04;29.88;;;25.25;;
58758;SDS011;46777;47.482;19.054;2023-02-13T04:54:48;28.65;;;25.27;;
58758;SDS011;46777;47.482;19.054;2023-02-13T04:57:32;27.85;;;22.85;;
58758;SDS011;46777;47.482;19.054;2023-02-13T05:00:17;31.02;;;26.27;;
58758;SDS011;46777;47.482;19.054;2023-02-13T05:03:05;26.38;;;23.52;;
58758;SDS011;46777;47.482;19.054;2023-02-13T05:05:50;26.67;;;23.77;;
58758;SDS011;46777;47.482;19.054;2023-02-13T05:08:34;26.10;;;23.25;;
58758;SDS011;46777;47.482;19.054;2023-02-13T05:11:18;21.75;;;12.88;;
58758;SDS011;46777;47.482;19.054;2023-02-13T05:14:03;27.10;;;23.88;;
58758;SDS011;46777;47.482;19.054;2023-02-13T05:16:47;28.63;;;25.58;;
58758;SDS011;46777;47.482;19.054;2023-02-13T05:19:32;28.13;;;24.67;;
58758;SDS011;46777;47.482;19.054;2023-02-13T05:22:16;27.52;;;24.52;;
58758;SDS011;46777;47.482;19.054;2023-02-13T05:25:20;32.28;;;26.52;;
58758;SDS011;46777;47.482;19.054;2023-02-13T05:28:05;31.08;;;27.05;;
58758;SDS011;46777;47.482;19.054;2023-02-13T05:31:10;29.55;;;26.45;;
58758;SDS011;46777;47.482;19.054;2023-02-13T05:33:54;28.85;;;25.52;;
58758;SDS011;46777;47.482;19.054;2023-02-13T05:36:38;29.25;;;25.50;;
58758;SDS011;46777;47.482;19.054;2023-02-13T05:39:23;28.42;;;24.77;;
58758;SDS011;46777;47.482;19.054;2023-02-13T05:42:07;28.65;;;25.35;;
58758;SDS011;46777;47.482;19.054;2023-02-13T05:44:52;28.00;;;24.38;;
58758;SDS011;46777;47.482;19.054;2023-02-13T05:47:36;27.98;;;24.70;;
58758;SDS011;46777;47.482;19.054;2023-02-13T05:50:20;27.35;;;24.38;;
58758;SDS011;46777;47.482;19.054;2023-02-13T05:53:04;25.85;;;22.63;;
58758;SDS011;46777;47.482;19.054;2023-02-13T05:55:49;23.60;;;20.98;;
58758;SDS011;46777;47.482;19.054;2023-02-13T05:58:35;23.52;;;20.95;;
58758;SDS011;46777;47.482;19.054;2023-02-13T06:01:19;22.83;;;20.42;;
58758;SDS011;46777;47.482;19.054;2023-02-13T06:04:04;23.73;;;20.40;;
58758;SDS011;46777;47.482;19.054;2023-02-13T06:06:48;23.15;;;20.63;;
58758;SDS011;46777;47.482;19.054;2023-02-13T06:09:32;23.92;;;19.77;;
58758;SDS011;46777;47.482;19.054;2023-02-13T06:12:16;22.17;;;19.42;;
58758;SDS011;46777;47.482;19.054;2023-02-13T06:15:01;23.52;;;19.05;;
58758;SDS011;46777;47.482;19.054;2023-02-13T06:17:45;21.77;;;19.63;;
58758;SDS011;46777;47.482;19.054;2023-02-13T06:20:29;22.92;;;19.63;;
58758;SDS011;46777;47.482;19.054;2023-02-13T06:23:13;21.98;;;19.60;;
58758;SDS011;46777;47.482;19.054;2023-02-13T06:26:05;22.70;;;20.30;;
58758;SDS011;46777;47.482;19.054;2023-02-13T06:28:50;24.10;;;20.77;;
58758;SDS011;46777;47.482;19.054;2023-02-13T06:31:34;24.95;;;20.88;;
58758;SDS011;46777;47.482;19.054;2023-02-13T06:34:19;26.05;;;21.48;;
58758;SDS011;46777;47.482;19.054;2023-02-13T06:37:03;27.08;;;23.80;;
58758;SDS011;46777;47.482;19.054;2023-02-13T06:39:47;28.38;;;24.02;;
58758;SDS011;46777;47.482;19.054;2023-02-13T06:42:31;29.13;;;24.17;;
58758;SDS011;46777;47.482;19.054;2023-02-13T06:45:15;28.00;;;23.52;;
58758;SDS011;46777;47.482;19.054;2023-02-13T06:48:00;26.85;;;23.30;;
58758;SDS011;46777;47.482;19.054;2023-02-13T06:50:44;26.48;;;23.63;;
58758;SDS011;46777;47.482;19.054;2023-02-13T06:53:28;31.10;;;25.30;;
58758;SDS011;46777;47.482;19.054;2023-02-13T06:56:13;29.33;;;25.33;;
58758;SDS011;46777;47.482;19.054;2023-02-13T06:58:57;32.17;;;27.38;;
58758;SDS011;46777;47.482;19.054;2023-02-13T07:01:41;30.88;;;26.92;;
58758;SDS011;46777;47.482;19.054;2023-02-13T07:04:26;30.27;;;25.33;;
58758;SDS011;46777;47.482;19.054;2023-02-13T07:07:10;32.50;;;26.38;;
58758;SDS011;46777;47.482;19.054;2023-02-13T07:09:55;29.90;;;26.58;;
58758;SDS011;46777;47.482;19.054;2023-02-13T07:12:39;30.38;;;26.05;;
58758;SDS011;46777;47.482;19.054;2023-02-13T07:15:23;30.75;;;25.23;;
58758;SDS011;46777;47.482;19.054;2023-02-13T07:18:07;29.55;;;25.65;;
58758;SDS011;46777;47.482;19.054;2023-02-13T07:20:52;32.58;;;25.90;;
58758;SDS011;46777;47.482;19.054;2023-02-13T07:23:36;32.00;;;26.25;;
58758;SDS011;46777;47.482;19.054;2023-02-13T07:26:20;28.73;;;25.63;;
58758;SDS011;46777;47.482;19.054;2023-02-13T07:29:05;31.45;;;26.33;;
58758;SDS011;46777;47.482;19.054;2023-02-13T07:31:49;29.80;;;26.60;;
58758;SDS011;46777;47.482;19.054;2023-02-13T07:34:33;30.50;;;26.15;;
58758;SDS011;46777;47.482;19.054;2023-02-13T07:37:17;30.70;;;26.13;;
58758;SDS011;46777;47.482;19.054;2023-02-13T07:40:02;30.83;;;27.52;;
58758;SDS011;46777;47.482;19.054;2023-02-13T07:42:47;31.88;;;26.88;;
58758;SDS011;46777;47.482;19.054;2023-02-13T07:45:32;31.58;;;27.48;;
58758;SDS011;46777;47.482;19.054;2023-02-13T07:48:16;33.03;;;27.10;;
58758;SDS011;46777;47.482;19.054;2023-02-13T07:51:01;34.83;;;27.83;;
58758;SDS011;46777;47.482;19.054;2023-02-13T07:53:46;35.55;;;27.05;;
58758;SDS011;46777;47.482;19.054;2023-02-13T07:56:30;33.25;;;28.20;;
58758;SDS011;46777;47.482;19.054;2023-02-13T07:59:14;33.40;;;29.48;;
58758;SDS011;46777;47.482;19.054;2023-02-13T08:01:59;36.65;;;30.35;;
58758;SDS011;46777;47.482;19.054;2023-02-13T08:04:43;35.05;;;30.15;;
58758;SDS011;46777;47.482;19.054;2023-02-13T08:07:30;33.97;;;30.30;;
58758;SDS011;46777;47.482;19.054;2023-02-13T08:10:14;33.08;;;29.58;;
58758;SDS011;46777;47.482;19.054;2023-02-13T08:13:17;33.08;;;29.67;;
58758;SDS011;46777;47.482;19.054;2023-02-13T08:16:02;37.78;;;30.92;;
58758;SDS011;46777;47.482;19.054;2023-02-13T08:18:46;36.35;;;30.88;;
58758;SDS011;46777;47.482;19.054;2023-02-13T08:21:30;34.50;;;30.90;;
58758;SDS011;46777;47.482;19.054;2023-02-13T08:24:15;33.83;;;30.20;;
58758;SDS011;46777;47.482;19.054;2023-02-13T08:26:59;37.97;;;31.90;;
58758;SDS011;46777;47.482;19.054;2023-02-13T08:29:43;35.42;;;30.52;;
58758;SDS011;46777;47.482;19.054;2023-02-13T08:32:27;34.03;;;29.90;;
58758;SDS011;46777;47.482;19.054;2023-02-13T08:35:12;34.30;;;30.63;;
58758;SDS011;46777;47.482;19.054;2023-02-13T08:37:56;34.03;;;30.23;;
58758;SDS011;46777;47.482;19.054;2023-02-13T08:40:40;34.47;;;30.67;;
58758;SDS011;46777;47.482;19.054;2023-02-13T08:43:25;33.33;;;28.80;;
58758;SDS011;46777;47.482;19.054;2023-02-13T08:46:09;32.10;;;27.63;;
58758;SDS011;46777;47.482;19.054;2023-02-13T08:48:53;33.75;;;30.08;;
58758;SDS011;46777;47.482;19.054;2023-02-13T08:51:37;32.13;;;27.10;;
58758;SDS011;46777;47.482;19.054;2023-02-13T08:54:22;30.40;;;27.10;;
58758;SDS011;46777;47.482;19.054;2023-02-13T08:57:07;30.08;;;26.95;;
58758;SDS011;46777;47.482;19.054;2023-02-13T08:59:51;33.38;;;26.67;;
58758;SDS011;46777;47.482;19.054;2023-02-13T09:02:35;30.25;;;27.20;;
58758;SDS011;46777;47.482;19.054;2023-02-13T09:05:20;30.55;;;27.33;;
58758;SDS011;46777;47.482;19.054;2023-02-13T09:08:04;29.85;;;26.70;;
58758;SDS011;46777;47.482;19.054;2023-02-13T09:10:53;29.92;;;26.67;;
58758;SDS011;46777;47.482;19.054;2023-02-13T09:13:38;29.60;;;26.48;;
58758;SDS011;46777;47.482;19.054;2023-02-13T09:16:22;27.52;;;24.73;;
58758;SDS011;46777;47.482;19.054;2023-02-13T09:19:06;27.67;;;24.50;;
58758;SDS011;46777;47.482;19.054;2023-02-13T09:21:51;30.30;;;24.67;;
58758;SDS011;46777;47.482;19.054;2023-02-13T09:24:35;27.80;;;24.90;;
58758;SDS011;46777;47.482;19.054;2023-02-13T09:27:19;28.60;;;25.30;;
58758;SDS011;46777;47.482;19.054;2023-02-13T09:30:04;27.60;;;24.80;;
58758;SDS011;46777;47.482;19.054;2023-02-13T09:32:52;28.40;;;25.45;;
58758;SDS011;46777;47.482;19.054;2023-02-13T09:35:37;27.15;;;24.27;;
58758;SDS011;46777;47.482;19.054;2023-02-13T09:38:24;26.10;;;23.40;;
58758;SDS011;46777;47.482;19.054;2023-02-13T09:41:10;27.33;;;24.42;;
58758;SDS011;46777;47.482;19.054;2023-02-13T09:44:03;26.10;;;23.27;;
58758;SDS011;46777;47.482;19.054;2023-02-13T09:46:49;26.92;;;23.73;;
58758;SDS011;46777;47.482;19.054;2023-02-13T09:49:34;26.73;;;23.92;;
58758;SDS011;46777;47.482;19.054;2023-02-13T09:52:19;27.38;;;24.63;;
58758;SDS011;46777;47.482;19.054;2023-02-13T09:55:20;26.25;;;23.48;;
58758;SDS011;46777;47.482;19.054;2023-02-13T09:58:14;26.38;;;23.58;;
58758;SDS011;46777;47.482;19.054;2023-02-13T10:01:04;27.70;;;24.83;;
58758;SDS011;46777;47.482;19.054;2023-02-13T10:03:51;27.48;;;24.67;;
58758;SDS011;46777;47.482;19.054;2023-02-13T10:06:38;27.58;;;24.77;;
58758;SDS011;46777;47.482;19.054;2023-02-13T10:09:51;28.05;;;25.13;;
58758;SDS011;46777;47.482;19.054;2023-02-13T10:15:53;27.83;;;24.98;;
58758;SDS011;46777;47.482;19.054;2023-02-13T10:18:46;28.20;;;25.40;;
58758;SDS011;46777;47.482;19.054;2023-02-13T10:21:33;28.13;;;25.23;;
58758;SDS011;46777;47.482;19.054;2023-02-13T10:24:27;27.40;;;24.58;;
58758;SDS011;46777;47.482;19.054;2023-02-13T10:36:04;26.60;;;24.00;;
58758;SDS011;46777;47.482;19.054;2023-02-13T10:41:47;27.48;;;24.80;;
58758;SDS011;46777;47.482;19.054;2023-02-13T10:52:56;25.48;;;22.77;;
58758;SDS011;46777;47.482;19.054;2023-02-13T11:04:33;26.73;;;24.10;;
58758;SDS011;46777;47.482;19.054;2023-02-13T11:07:18;25.98;;;23.40;;
58758;SDS011;46777;47.482;19.054;2023-02-13T11:10:06;26.65;;;23.75;;
58758;SDS011;46777;47.482;19.054;2023-02-13T11:12:56;25.40;;;23.10;;
58758;SDS011;46777;47.482;19.054;2023-02-13T11:15:41;26.42;;;23.88;;
58758;SDS011;46777;47.482;19.054;2023-02-13T11:18:25;26.42;;;23.88;;
58758;SDS011;46777;47.482;19.054;2023-02-13T11:21:15;27.02;;;23.90;;
58758;SDS011;46777;47.482;19.054;2023-02-13T11:24:02;26.75;;;23.92;;
58758;SDS011;46777;47.482;19.054;2023-02-13T11:26:49;31.95;;;29.05;;
58758;SDS011;46777;47.482;19.054;2023-02-13T11:29:35;28.77;;;25.67;;
58758;SDS011;46777;47.482;19.054;2023-02-13T11:32:21;40.20;;;26.35;;
58758;SDS011;46777;47.482;19.054;2023-02-13T11:35:19;27.10;;;24.27;;
58758;SDS011;46777;47.482;19.054;2023-02-13T11:41:03;26.98;;;24.27;;
58758;SDS011;46777;47.482;19.054;2023-02-13T11:43:49;27.13;;;24.65;;
58758;SDS011;46777;47.482;19.054;2023-02-13T11:46:42;28.67;;;25.63;;
58758;SDS011;46777;47.482;19.054;2023-02-13T11:49:28;27.55;;;24.73;;
58758;SDS011;46777;47.482;19.054;2023-02-13T11:52:23;27.63;;;24.85;;
58758;SDS011;46777;47.482;19.054;2023-02-13T11:55:26;27.55;;;24.80;;
58758;SDS011;46777;47.482;19.054;2023-02-13T12:04:17;27.30;;;24.58;;
58758;SDS011;46777;47.482;19.054;2023-02-13T12:07:16;27.08;;;24.48;;
58758;SDS011;46777;47.482;19.054;2023-02-13T12:10:23;28.05;;;25.48;;
58758;SDS011;46777;47.482;19.054;2023-02-13T12:13:24;29.33;;;26.40;;
58758;SDS011;46777;47.482;19.054;2023-02-13T12:16:13;27.15;;;24.33;;
58758;SDS011;46777;47.482;19.054;2023-02-13T12:18:59;28.85;;;25.80;;
58758;SDS011;46777;47.482;19.054;2023-02-13T12:27:29;31.35;;;28.17;;
58758;SDS011;46777;47.482;19.054;2023-02-13T12:30:26;29.92;;;26.92;;
58758;SDS011;46777;47.482;19.054;2023-02-13T12:33:26;29.58;;;26.88;;
58758;SDS011;46777;47.482;19.054;2023-02-13T12:41:45;28.00;;;25.52;;
58758;SDS011;46777;47.482;19.054;2023-02-13T12:47:43;29.15;;;26.45;;
58758;SDS011;46777;47.482;19.054;2023-02-13T12:50:54;27.57;;;25.07;;
58758;SDS011;46777;47.482;19.054;2023-02-13T12:53:47;29.48;;;26.80;;
58758;SDS011;46777;47.482;19.054;2023-02-13T12:56:54;28.95;;;26.35;;
58758;SDS011;46777;47.482;19.054;2023-02-13T13:00:04;26.25;;;23.92;;
58758;SDS011;46777;47.482;19.054;2023-02-13T13:09:16;25.65;;;23.40;;
58758;SDS011;46777;47.482;19.054;2023-02-13T13:20:24;26.95;;;24.45;;
58758;SDS011;46777;47.482;19.054;2023-02-13T13:23:20;27.30;;;24.58;;
58758;SDS011;46777;47.482;19.054;2023-02-13T13:26:12;16.98;;;15.10;;
58758;SDS011;46777;47.482;19.054;2023-02-13T13:28:59;11.45;;;10.35;;
58758;SDS011;46777;47.482;19.054;2023-02-13T13:31:51;13.75;;;12.35;;
58758;SDS011;46777;47.482;19.054;2023-02-13T13:34:36;12.60;;;11.30;;
58758;SDS011;46777;47.482;19.054;2023-02-13T13:37:30;13.35;;;10.60;;
58758;SDS011;46777;47.482;19.054;2023-02-13T13:43:12;13.55;;;11.15;;
58758;SDS011;46777;47.482;19.054;2023-02-13T13:51:40;11.60;;;10.40;;
58758;SDS011;46777;47.482;19.054;2023-02-13T13:54:24;12.13;;;10.90;;
58758;SDS011;46777;47.482;19.054;2023-02-13T13:57:19;10.85;;;9.85;;
58758;SDS011;46777;47.482;19.054;2023-02-13T14:05:58;11.85;;;10.68;;
58758;SDS011;46777;47.482;19.054;2023-02-13T14:17:12;12.07;;;10.63;;
58758;SDS011;46777;47.482;19.054;2023-02-13T14:19:57;12.90;;;11.43;;
58758;SDS011;46777;47.482;19.054;2023-02-13T14:22:42;12.70;;;11.50;;
58758;SDS011;46777;47.482;19.054;2023-02-13T14:25:27;13.32;;;12.05;;
58758;SDS011;46777;47.482;19.054;2023-02-13T14:28:20;14.25;;;12.88;;
58758;SDS011;46777;47.482;19.054;2023-02-13T14:36:47;14.00;;;12.50;;
58758;SDS011;46777;47.482;19.054;2023-02-13T14:39:33;15.10;;;13.50;;
58758;SDS011;46777;47.482;19.054;2023-02-13T14:42:22;15.05;;;13.48;;
58758;SDS011;46777;47.482;19.054;2023-02-13T14:45:15;15.82;;;13.32;;
58758;SDS011;46777;47.482;19.054;2023-02-13T14:48:07;16.98;;;14.27;;
58758;SDS011;46777;47.482;19.054;2023-02-13T14:50:55;16.15;;;14.40;;
58758;SDS011;46777;47.482;19.054;2023-02-13T14:53:48;16.52;;;14.80;;
58758;SDS011;46777;47.482;19.054;2023-02-13T14:56:35;17.45;;;15.30;;
58758;SDS011;46777;47.482;19.054;2023-02-13T14:59:24;18.00;;;15.07;;
58758;SDS011;46777;47.482;19.054;2023-02-13T15:02:23;19.00;;;16.13;;
58758;SDS011;46777;47.482;19.054;2023-02-13T15:05:12;17.52;;;15.40;;
58758;SDS011;46777;47.482;19.054;2023-02-13T15:08:01;18.55;;;15.70;;
58758;SDS011;46777;47.482;19.054;2023-02-13T15:10:48;17.17;;;15.10;;
58758;SDS011;46777;47.482;19.054;2023-02-13T15:13:34;18.25;;;15.95;;
58758;SDS011;46777;47.482;19.054;2023-02-13T15:16:20;17.08;;;15.30;;
58758;SDS011;46777;47.482;19.054;2023-02-13T15:19:04;17.98;;;15.35;;
58758;SDS011;46777;47.482;19.054;2023-02-13T15:21:53;17.48;;;15.07;;
58758;SDS011;46777;47.482;19.054;2023-02-13T15:24:42;15.93;;;14.07;;
58758;SDS011;46777;47.482;19.054;2023-02-13T15:27:29;16.05;;;14.35;;
58758;SDS011;46777;47.482;19.054;2023-02-13T15:33:03;16.50;;;14.70;;
58758;SDS011;46777;47.482;19.054;2023-02-13T15:35:58;18.52;;;14.20;;
58758;SDS011;46777;47.482;19.054;2023-02-13T15:38:43;15.02;;;12.70;;
58758;SDS011;46777;47.482;19.054;2023-02-13T15:41:29;16.33;;;13.75;;
58758;SDS011;46777;47.482;19.054;2023-02-13T15:44:16;16.13;;;14.48;;
58758;SDS011;46777;47.482;19.054;2023-02-13T15:47:15;15.18;;;13.57;;
58758;SDS011;46777;47.482;19.054;2023-02-13T15:50:01;14.07;;;12.55;;
58758;SDS011;46777;47.482;19.054;2023-02-13T15:52:45;14.77;;;11.90;;
58758;SDS011;46777;47.482;19.054;2023-02-13T15:55:32;16.67;;;12.43;;
58758;SDS011;46777;47.482;19.054;2023-02-13T15:58:16;15.57;;;12.48;;
58758;SDS011;46777;47.482;19.054;2023-02-13T16:01:04;14.65;;;11.45;;
58758;SDS011;46777;47.482;19.054;2023-02-13T16:03:55;12.40;;;10.68;;
58758;SDS011;46777;47.482;19.054;2023-02-13T16:06:43;12.60;;;11.00;;
58758;SDS011;46777;47.482;19.054;2023-02-13T16:09:32;14.85;;;12.75;;
58758;SDS011;46777;47.482;19.054;2023-02-13T16:12:23;11.80;;;10.60;;
58758;SDS011;46777;47.482;19.054;2023-02-13T16:15:12;12.53;;;10.93;;
58758;SDS011;46777;47.482;19.054;2023-02-13T16:17:59;14.02;;;10.63;;
58758;SDS011;46777;47.482;19.054;2023-02-13T16:20:44;13.07;;;11.13;;
58758;SDS011;46777;47.482;19.054;2023-02-13T16:23:28;12.20;;;10.90;;
58758;SDS011;46777;47.482;19.054;2023-02-13T16:26:14;13.32;;;11.10;;
58758;SDS011;46777;47.482;19.054;2023-02-13T16:28:59;11.90;;;10.23;;
58758;SDS011;46777;47.482;19.054;2023-02-13T16:31:43;12.10;;;10.32;;
58758;SDS011;46777;47.482;19.054;2023-02-13T16:34:28;13.80;;;10.80;;
58758;SDS011;46777;47.482;19.054;2023-02-13T16:37:26;12.80;;;10.55;;
58758;SDS011;46777;47.482;19.054;2023-02-13T16:51:49;11.02;;;9.88;;
58758;SDS011;46777;47.482;19.054;2023-02-13T16:57:28;12.80;;;10.10;;
58758;SDS011;46777;47.482;19.054;2023-02-13T17:00:17;11.80;;;9.10;;
58758;SDS011;46777;47.482;19.054;2023-02-13T17:03:06;10.98;;;9.35;;
58758;SDS011;46777;47.482;19.054;2023-02-13T17:05:51;12.13;;;9.93;;
58758;SDS011;46777;47.482;19.054;2023-02-13T17:08:36;13.48;;;10.25;;
58758;SDS011;46777;47.482;19.054;2023-02-13T17:11:20;12.10;;;9.85;;
58758;SDS011;46777;47.482;19.054;2023-02-13T17:14:04;11.45;;;9.95;;
58758;SDS011;46777;47.482;19.054;2023-02-13T17:16:48;12.25;;;10.02;;
58758;SDS011;46777;47.482;19.054;2023-02-13T17:19:33;11.75;;;10.23;;
58758;SDS011;46777;47.482;19.054;2023-02-13T17:22:18;11.07;;;9.55;;
58758;SDS011;46777;47.482;19.054;2023-02-13T17:25:06;13.55;;;11.13;;
58758;SDS011;46777;47.482;19.054;2023-02-13T17:27:51;11.68;;;9.68;;
58758;SDS011;46777;47.482;19.054;2023-02-13T17:30:36;14.25;;;11.00;;
58758;SDS011;46777;47.482;19.054;2023-02-13T17:33:21;13.07;;;10.68;;
58758;SDS011;46777;47.482;19.054;2023-02-13T17:36:06;12.80;;;10.52;;
58758;SDS011;46777;47.482;19.054;2023-02-13T17:38:50;14.70;;;10.77;;
58758;SDS011;46777;47.482;19.054;2023-02-13T17:41:35;13.98;;;10.45;;
58758;SDS011;46777;47.482;19.054;2023-02-13T17:44:21;12.65;;;10.90;;
58758;SDS011;46777;47.482;19.054;2023-02-13T17:47:05;13.43;;;11.10;;
58758;SDS011;46777;47.482;19.054;2023-02-13T17:49:49;14.98;;;11.32;;
58758;SDS011;46777;47.482;19.054;2023-02-13T17:52:34;13.85;;;10.57;;
58758;SDS011;46777;47.482;19.054;2023-02-13T17:55:19;14.07;;;10.50;;
58758;SDS011;46777;47.482;19.054;2023-02-13T17:58:04;16.33;;;11.30;;
58758;SDS011;46777;47.482;19.054;2023-02-13T18:00:49;13.23;;;10.40;;
58758;SDS011;46777;47.482;19.054;2023-02-13T18:03:33;14.93;;;10.77;;
58758;SDS011;46777;47.482;19.054;2023-02-13T18:06:17;13.68;;;11.32;;
58758;SDS011;46777;47.482;19.054;2023-02-13T18:09:01;14.60;;;11.32;;
58758;SDS011;46777;47.482;19.054;2023-02-13T18:11:47;13.80;;;11.30;;
58758;SDS011;46777;47.482;19.054;2023-02-13T18:14:32;14.20;;;11.93;;
58758;SDS011;46777;47.482;19.054;2023-02-13T18:17:17;15.48;;;12.15;;
58758;SDS011;46777;47.482;19.054;2023-02-13T18:20:02;17.52;;;12.18;;
58758;SDS011;46777;47.482;19.054;2023-02-13T18:22:47;15.10;;;12.65;;
58758;SDS011;46777;47.482;19.054;2023-02-13T18:25:34;18.55;;;14.98;;
58758;SDS011;46777;47.482;19.054;2023-02-13T18:28:18;14.98;;;13.23;;
58758;SDS011;46777;47.482;19.054;2023-02-13T18:31:02;15.68;;;13.50;;
58758;SDS011;46777;47.482;19.054;2023-02-13T18:33:47;17.35;;;13.45;;
58758;SDS011;46777;47.482;19.054;2023-02-13T18:36:31;17.67;;;13.90;;
58758;SDS011;46777;47.482;19.054;2023-02-13T18:39:15;16.13;;;13.63;;
58758;SDS011;46777;47.482;19.054;2023-02-13T18:42:00;16.55;;;13.93;;
58758;SDS011;46777;47.482;19.054;2023-02-13T18:44:45;16.25;;;13.15;;